Time;durP1;ratioP1;P1;durP2;ratioP2;P2;SDS_P1;SDS_P2;PMS_P1;PMS_P2;Temp;Humidity;BMP_temperature;BMP_pressure;BME280_temperature;BME280_humidity;BME280_pressure;Samples;Min_cycle;Max_cycle;Signal;HPM_P1;HPM_P2
2021/08/25 00:02:05;;;;;;;4.90;1.70;;;;;;;;;;5052087;28;20132;-66
2021/08/25 00:04:31;;;;;;;2.60;1.30;;;;;;;;;;5052226;28;20052;-66
2021/08/25 00:06:57;;;;;;;3.42;1.42;;;;;;;;;;5063773;28;20367;-66
2021/08/25 00:09:23;;;;;;;7.25;1.40;;;;;;;;;;5038018;28;20044;-67
2021/08/25 00:11:49;;;;;;;8.70;1.45;;;;;;;;;;5037820;28;20055;-66
2021/08/25 00:14:15;;;;;;;9.43;1.50;;;;;;;;;;5037941;28;20380;-67
2021/08/25 00:16:41;;;;;;;3.63;1.30;;;;;;;;;;5055480;28;20048;-67
2021/08/25 00:19:07;;;;;;;2.58;1.50;;;;;;;;;;5055618;28;20025;-67
2021/08/25 00:21:33;;;;;;;3.65;1.30;;;;;;;;;;5037720;28;20075;-67
2021/08/25 00:23:59;;;;;;;1.98;1.23;;;;;;;;;;5037878;28;20029;-67
2021/08/25 00:26:25;;;;;;;4.07;1.30;;;;;;;;;;5055513;28;20040;-67
2021/08/25 00:28:51;;;;;;;1.88;1.20;;;;;;;;;;5055354;28;20502;-68
2021/08/25 00:31:16;;;;;;;2.63;1.00;;;;;;;;;;5055259;28;20385;-67
2021/08/25 00:33:42;;;;;;;2.05;1.02;;;;;;;;;;5055382;28;20032;-66
2021/08/25 00:36:08;;;;;;;4.05;1.23;;;;;;;;;;5055395;28;20025;-67
2021/08/25 00:38:34;;;;;;;3.40;1.20;;;;;;;;;;5055069;28;20021;-67
2021/08/25 00:41:01;;;;;;;1.75;1.10;;;;;;;;;;5037115;28;20025;-67
2021/08/25 00:43:27;;;;;;;2.92;1.20;;;;;;;;;;5054920;28;20036;-67
2021/08/25 00:45:53;;;;;;;4.05;1.20;;;;;;;;;;5037406;28;20021;-67
2021/08/25 00:48:19;;;;;;;5.70;1.30;;;;;;;;;;5054999;28;20025;-67
2021/08/25 00:50:49;;;;;;;2.63;1.40;;;;;;;;;;5054984;28;20500;-66
2021/08/25 00:53:16;;;;;;;3.83;1.08;;;;;;;;;;5037035;28;20028;-66
2021/08/25 00:55:43;;;;;;;8.18;1.42;;;;;;;;;;5055247;28;20017;-66
2021/08/25 00:58:09;;;;;;;6.50;1.10;;;;;;;;;;5037292;28;20129;-65
2021/08/25 01:00:37;;;;;;;3.28;1.17;;;;;;;;;;5055135;28;20067;-66
2021/08/25 01:03:06;;;;;;;4.28;1.38;;;;;;;;;;5054970;28;20055;-66
2021/08/25 01:05:34;;;;;;;3.97;1.23;;;;;;;;;;5054924;28;20021;-64
2021/08/25 01:08:02;;;;;;;3.97;1.33;;;;;;;;;;5054589;28;20070;-64
2021/08/25 01:10:29;;;;;;;4.55;1.30;;;;;;;;;;5054836;28;20096;-64
2021/08/25 01:12:55;;;;;;;5.53;1.05;;;;;;;;;;5036774;28;20487;-64
2021/08/25 01:15:21;;;;;;;7.50;1.02;;;;;;;;;;5054923;28;20028;-63
2021/08/25 01:17:49;;;;;;;3.13;1.15;;;;;;;;;;5067676;28;20104;-64
2021/08/25 01:20:15;;;;;;;3.47;1.33;;;;;;;;;;5056892;28;20066;-64
2021/08/25 01:22:44;;;;;;;11.13;1.30;;;;;;;;;;5056661;28;20036;-64
2021/08/25 01:25:15;;;;;;;2.85;1.10;;;;;;;;;;5074993;28;20017;-64
2021/08/25 01:27:43;;;;;;;2.85;1.00;;;;;;;;;;5056551;28;20115;-67
2021/08/25 01:30:10;;;;;;;3.42;1.10;;;;;;;;;;5074577;28;20475;-67
2021/08/25 01:32:36;;;;;;;6.05;2.20;;;;;;;;;;5074398;28;20017;-67
2021/08/25 01:35:03;;;;;;;2.42;1.10;;;;;;;;;;5074175;28;20059;-67
2021/08/25 01:37:29;;;;;;;5.82;1.27;;;;;;;;;;5063504;28;20437;-67
2021/08/25 01:39:55;;;;;;;5.47;1.10;;;;;;;;;;5054456;28;20021;-67
2021/08/25 01:42:22;;;;;;;6.30;1.02;;;;;;;;;;5035975;28;20064;-67
2021/08/25 01:44:49;;;;;;;4.68;1.38;;;;;;;;;;5054220;28;20049;-68
2021/08/25 01:47:15;;;;;;;1.92;1.00;;;;;;;;;;5054105;28;20025;-67
2021/08/25 01:49:41;;;;;;;10.25;1.30;;;;;;;;;;5040971;28;20510;-67
2021/08/25 01:52:07;;;;;;;2.53;1.30;;;;;;;;;;5034386;28;20060;-67
2021/08/25 01:54:33;;;;;;;1.95;0.90;;;;;;;;;;5016314;28;20049;-66
2021/08/25 01:56:59;;;;;;;8.40;1.92;;;;;;;;;;5034434;28;20429;-67
2021/08/25 01:59:25;;;;;;;3.28;1.30;;;;;;;;;;5034214;28;20473;-68
2021/08/25 02:01:51;;;;;;;5.65;1.27;;;;;;;;;;5034134;28;20041;-68
2021/08/25 02:04:17;;;;;;;8.98;1.10;;;;;;;;;;5034192;28;20026;-69
2021/08/25 02:06:43;;;;;;;2.45;1.17;;;;;;;;;;5034085;28;20380;-67
2021/08/25 02:09:09;;;;;;;2.15;1.17;;;;;;;;;;5033788;28;20021;-68
2021/08/25 02:11:35;;;;;;;5.38;1.05;;;;;;;;;;5034063;28;20389;-68
2021/08/25 02:14:01;;;;;;;5.03;1.13;;;;;;;;;;5033723;28;20021;-68
2021/08/25 02:16:27;;;;;;;4.53;1.20;;;;;;;;;;5036159;28;20022;-68
2021/08/25 02:18:53;;;;;;;6.05;1.42;;;;;;;;;;5053626;28;20174;-68
2021/08/25 02:21:22;;;;;;;3.20;1.08;;;;;;;;;;5053743;28;20468;-68
2021/08/25 02:23:48;;;;;;;1.67;1.15;;;;;;;;;;5053868;28;20801;-69
2021/08/25 02:26:18;;;;;;;2.45;1.05;;;;;;;;;;5054015;28;20059;-68
2021/08/25 02:28:45;;;;;;;5.40;1.30;;;;;;;;;;5034852;28;20051;-68
2021/08/25 02:31:11;;;;;;;4.82;1.30;;;;;;;;;;5053653;28;20025;-68
2021/08/25 02:33:37;;;;;;;3.55;0.98;;;;;;;;;;5035612;28;20159;-67
2021/08/25 02:36:08;;;;;;;4.15;1.00;;;;;;;;;;5053583;28;20472;-68
2021/08/25 02:38:35;;;;;;;4.97;1.23;;;;;;;;;;5053276;28;20043;-68
2021/08/25 02:41:02;;;;;;;2.75;1.02;;;;;;;;;;5035352;28;20083;-68
2021/08/25 02:43:28;;;;;;;4.72;0.80;;;;;;;;;;5053287;28;20029;-68
2021/08/25 02:45:54;;;;;;;2.17;1.20;;;;;;;;;;5035411;28;20032;-68
2021/08/25 02:48:20;;;;;;;1.33;0.93;;;;;;;;;;5053052;28;20103;-68
2021/08/25 02:50:46;;;;;;;2.05;1.20;;;;;;;;;;5053095;28;20082;-68
2021/08/25 02:53:12;;;;;;;1.70;1.00;;;;;;;;;;5053192;28;20040;-68
2021/08/25 02:55:38;;;;;;;9.98;1.45;;;;;;;;;;5053160;28;20121;-67
2021/08/25 02:58:04;;;;;;;3.35;1.10;;;;;;;;;;5053045;28;20025;-68
2021/08/25 03:00:30;;;;;;;2.35;0.90;;;;;;;;;;5035089;28;20052;-68
2021/08/25 03:02:56;;;;;;;1.10;0.90;;;;;;;;;;5053005;28;20037;-67
2021/08/25 03:05:22;;;;;;;2.92;0.90;;;;;;;;;;5053030;28;20032;-68
2021/08/25 03:07:48;;;;;;;3.30;1.40;;;;;;;;;;5052982;28;20029;-68
2021/08/25 03:10:14;;;;;;;4.28;1.17;;;;;;;;;;5053163;28;20024;-67
2021/08/25 03:12:40;;;;;;;3.67;1.20;;;;;;;;;;5052832;28;20037;-66
2021/08/25 03:15:07;;;;;;;4.55;1.10;;;;;;;;;;5052834;28;20047;-68
2021/08/25 03:17:33;;;;;;;2.38;1.20;;;;;;;;;;5052676;28;20072;-68
2021/08/25 03:19:59;;;;;;;10.05;1.33;;;;;;;;;;5052540;28;20449;-66
2021/08/25 03:22:25;;;;;;;2.50;1.30;;;;;;;;;;5052878;28;20044;-66
2021/08/25 03:24:51;;;;;;;7.10;1.42;;;;;;;;;;5052834;28;20051;-67
2021/08/25 03:27:17;;;;;;;6.53;1.10;;;;;;;;;;5052587;28;20036;-67
2021/08/25 03:29:43;;;;;;;2.05;1.00;;;;;;;;;;5052467;28;20477;-68
2021/08/25 03:32:09;;;;;;;4.85;1.13;;;;;;;;;;5034793;28;20056;-68
2021/08/25 03:34:35;;;;;;;5.13;1.00;;;;;;;;;;5052525;28;20108;-67
2021/08/25 03:37:01;;;;;;;3.95;1.10;;;;;;;;;;5052440;28;20025;-68
2021/08/25 03:39:27;;;;;;;2.97;1.42;;;;;;;;;;5053477;28;20457;-67
2021/08/25 03:41:53;;;;;;;6.45;1.00;;;;;;;;;;5056472;28;20455;-68
2021/08/25 03:44:19;;;;;;;1.52;1.00;;;;;;;;;;5056789;28;20029;-68
2021/08/25 03:46:44;;;;;;;3.90;1.10;;;;;;;;;;5056486;28;20531;-68
2021/08/25 03:49:10;;;;;;;2.20;1.13;;;;;;;;;;5056346;28;20424;-66
2021/08/25 03:51:36;;;;;;;8.88;1.20;;;;;;;;;;5056570;28;20025;-65
2021/08/25 03:54:02;;;;;;;8.75;1.10;;;;;;;;;;5056425;28;20025;-65
2021/08/25 03:56:28;;;;;;;5.45;1.40;;;;;;;;;;5056403;28;20021;-66
2021/08/25 03:58:54;;;;;;;12.88;1.42;;;;;;;;;;5056216;28;20492;-66
2021/08/25 04:01:20;;;;;;;10.88;1.02;;;;;;;;;;5056352;28;20353;-65
2021/08/25 04:03:46;;;;;;;6.03;1.00;;;;;;;;;;5056364;28;20033;-65
2021/08/25 04:06:12;;;;;;;14.05;1.50;;;;;;;;;;5056443;28;20028;-66
2021/08/25 04:08:38;;;;;;;16.48;1.15;;;;;;;;;;5056248;28;20766;-67
2021/08/25 04:11:04;;;;;;;2.90;1.00;;;;;;;;;;5055984;28;20028;-66
2021/08/25 04:13:30;;;;;;;5.15;1.20;;;;;;;;;;5055947;28;20032;-66
2021/08/25 04:15:56;;;;;;;7.22;1.38;;;;;;;;;;5056001;28;20072;-68
2021/08/25 04:18:22;;;;;;;11.48;1.40;;;;;;;;;;5055795;28;20052;-65
2021/08/25 04:20:48;;;;;;;10.00;1.25;;;;;;;;;;5055759;28;20176;-66
2021/08/25 04:23:14;;;;;;;11.65;1.33;;;;;;;;;;5055914;28;20052;-65
2021/08/25 04:25:41;;;;;;;4.18;1.17;;;;;;;;;;5038278;28;20025;-66
2021/08/25 04:28:08;;;;;;;4.85;1.20;;;;;;;;;;5055811;28;20047;-66
2021/08/25 04:30:34;;;;;;;7.35;1.50;;;;;;;;;;5055856;28;20538;-66
2021/08/25 04:33:00;;;;;;;12.98;1.60;;;;;;;;;;5055505;28;20060;-67
2021/08/25 04:35:26;;;;;;;15.30;1.52;;;;;;;;;;5055776;28;20037;-67
2021/08/25 04:37:52;;;;;;;23.38;1.77;;;;;;;;;;5055748;28;20083;-66
2021/08/25 04:40:18;;;;;;;10.07;1.70;;;;;;;;;;5037800;28;20372;-66
2021/08/25 04:42:43;;;;;;;21.67;1.50;;;;;;;;;;5055430;28;20033;-66
2021/08/25 04:45:10;;;;;;;32.83;1.92;;;;;;;;;;5055442;28;20338;-65
2021/08/25 04:47:36;;;;;;;44.35;3.28;;;;;;;;;;5055394;28;20441;-66
2021/08/25 04:50:02;;;;;;;26.20;1.92;;;;;;;;;;5055271;28;20051;-65
2021/08/25 04:52:28;;;;;;;26.63;1.90;;;;;;;;;;5054245;28;20107;-63
2021/08/25 04:54:54;;;;;;;17.15;2.10;;;;;;;;;;5055163;28;20437;-63
2021/08/25 04:57:20;;;;;;;16.05;1.80;;;;;;;;;;5055196;28;20460;-67
2021/08/25 04:59:46;;;;;;;4.47;1.90;;;;;;;;;;5055078;28;20075;-67
2021/08/25 05:02:11;;;;;;;10.95;2.10;;;;;;;;;;5055046;28;20044;-67
2021/08/25 05:04:37;;;;;;;18.50;2.17;;;;;;;;;;5037212;28;20450;-67
2021/08/25 05:07:03;;;;;;;4.80;2.10;;;;;;;;;;5055306;28;20731;-65
2021/08/25 05:09:29;;;;;;;6.13;2.17;;;;;;;;;;5054881;28;20021;-67
2021/08/25 05:11:56;;;;;;;14.77;1.90;;;;;;;;;;5036978;28;20382;-67
2021/08/25 05:14:22;;;;;;;17.98;2.47;;;;;;;;;;5054918;28;20078;-63
2021/08/25 05:16:48;;;;;;;13.07;2.88;;;;;;;;;;5054562;28;20443;-64
2021/08/25 05:19:14;;;;;;;5.88;2.17;;;;;;;;;;5037085;28;20044;-64
2021/08/25 05:21:40;;;;;;;4.43;2.55;;;;;;;;;;5054581;28;20033;-64
2021/08/25 05:24:06;;;;;;;6.97;2.17;;;;;;;;;;5054753;28;20033;-63
2021/08/25 05:26:32;;;;;;;11.13;2.45;;;;;;;;;;5054493;28;20496;-65
2021/08/25 05:28:58;;;;;;;6.93;2.50;;;;;;;;;;5036913;28;20029;-65
2021/08/25 05:31:25;;;;;;;6.78;2.30;;;;;;;;;;5054727;28;20160;-65
2021/08/25 05:33:51;;;;;;;4.53;2.63;;;;;;;;;;5036703;28;20025;-65
2021/08/25 05:36:17;;;;;;;8.43;2.70;;;;;;;;;;5054298;28;20032;-66
2021/08/25 05:38:44;;;;;;;7.47;2.45;;;;;;;;;;5054657;28;20029;-65
2021/08/25 05:41:10;;;;;;;4.60;2.60;;;;;;;;;;5054162;28;20025;-66
2021/08/25 05:43:36;;;;;;;4.30;2.70;;;;;;;;;;5054693;28;20091;-66
2021/08/25 05:46:02;;;;;;;6.10;3.00;;;;;;;;;;5054342;28;20411;-65
2021/08/25 05:48:28;;;;;;;5.15;2.53;;;;;;;;;;5054271;28;20138;-66
2021/08/25 05:50:55;;;;;;;3.60;2.80;;;;;;;;;;5054261;28;20040;-66
2021/08/25 05:53:21;;;;;;;6.93;2.70;;;;;;;;;;5054293;28;20445;-65
2021/08/25 05:55:47;;;;;;;5.35;3.33;;;;;;;;;;5036343;28;20025;-66
2021/08/25 05:58:13;;;;;;;12.05;2.85;;;;;;;;;;5054058;28;20051;-66
2021/08/25 06:00:39;;;;;;;5.38;3.35;;;;;;;;;;5035946;28;20460;-66
2021/08/25 06:03:05;;;;;;;5.97;2.88;;;;;;;;;;5053752;28;20408;-65
2021/08/25 06:05:31;;;;;;;10.10;3.00;;;;;;;;;;5054032;28;20432;-67
2021/08/25 06:07:57;;;;;;;9.50;3.17;;;;;;;;;;5053992;28;20025;-68
2021/08/25 06:10:23;;;;;;;18.40;3.85;;;;;;;;;;5053923;28;20527;-63
2021/08/25 06:12:49;;;;;;;11.60;2.88;;;;;;;;;;5053986;28;20037;-66
2021/08/25 06:15:15;;;;;;;22.15;3.40;;;;;;;;;;5053740;28;20028;-65
2021/08/25 06:17:41;;;;;;;20.80;3.58;;;;;;;;;;5046010;28;20044;-65
2021/08/25 06:20:07;;;;;;;33.60;3.60;;;;;;;;;;5073525;28;20448;-67
2021/08/25 06:22:33;;;;;;;43.75;4.00;;;;;;;;;;5073616;28;20036;-69
2021/08/25 06:24:59;;;;;;;59.58;4.97;;;;;;;;;;5073669;28;20035;-68
2021/08/25 06:27:25;;;;;;;29.15;4.20;;;;;;;;;;5073614;28;20028;-68
2021/08/25 06:29:51;;;;;;;15.18;4.05;;;;;;;;;;5073560;28;20024;-68
2021/08/25 06:32:17;;;;;;;15.10;4.10;;;;;;;;;;5073417;28;20464;-68
2021/08/25 06:34:43;;;;;;;32.97;4.00;;;;;;;;;;5073447;28;20028;-67
2021/08/25 06:37:09;;;;;;;10.20;3.17;;;;;;;;;;5073241;28;20028;-68
2021/08/25 06:39:35;;;;;;;9.57;3.65;;;;;;;;;;5073349;28;20021;-68
2021/08/25 06:42:01;;;;;;;10.25;3.40;;;;;;;;;;5073204;28;20450;-67
2021/08/25 06:44:27;;;;;;;17.13;3.00;;;;;;;;;;5073034;28;20448;-68
2021/08/25 06:46:53;;;;;;;9.55;3.30;;;;;;;;;;5072983;28;20100;-68
2021/08/25 06:49:19;;;;;;;11.80;3.58;;;;;;;;;;5073043;28;20468;-67
2021/08/25 06:51:45;;;;;;;6.28;3.33;;;;;;;;;;5073089;28;20043;-66
2021/08/25 06:54:12;;;;;;;12.10;4.00;;;;;;;;;;5073156;28;20056;-64
2021/08/25 06:56:38;;;;;;;5.65;3.15;;;;;;;;;;5073013;28;20476;-65
2021/08/25 06:59:04;;;;;;;6.85;4.00;;;;;;;;;;5073042;28;20158;-66
2021/08/25 07:01:30;;;;;;;16.50;3.83;;;;;;;;;;5072453;28;20115;-66
2021/08/25 07:03:56;;;;;;;6.22;3.75;;;;;;;;;;5073082;28;20099;-67
2021/08/25 07:06:22;;;;;;;9.48;4.20;;;;;;;;;;5072666;28;20108;-66
2021/08/25 07:08:48;;;;;;;15.43;4.63;;;;;;;;;;5074462;28;20115;-66
2021/08/25 07:11:14;;;;;;;13.82;4.75;;;;;;;;;;5080892;28;20496;-66
2021/08/25 07:13:40;;;;;;;13.05;4.13;;;;;;;;;;5082383;28;20059;-65
2021/08/25 07:16:10;;;;;;;16.40;4.30;;;;;;;;;;5079790;28;20008;-65
2021/08/25 07:18:37;;;;;;;12.68;4.35;;;;;;;;;;5079821;28;20080;-64
2021/08/25 07:21:04;;;;;;;13.85;4.35;;;;;;;;;;5071483;28;20025;-64
2021/08/25 07:23:30;;;;;;;10.43;4.15;;;;;;;;;;5068585;28;20028;-64
2021/08/25 07:25:56;;;;;;;6.60;3.80;;;;;;;;;;5069082;28;20027;-64
2021/08/25 07:28:22;;;;;;;9.55;4.32;;;;;;;;;;5066273;28;20068;-63
2021/08/25 07:30:48;;;;;;;12.13;5.10;;;;;;;;;;5072455;28;20044;-64
2021/08/25 07:33:16;;;;;;;11.35;4.70;;;;;;;;;;5071996;28;20052;-64
2021/08/25 07:35:46;;;;;;;12.85;5.05;;;;;;;;;;5054715;28;20029;-64
2021/08/25 07:38:12;;;;;;;10.38;4.97;;;;;;;;;;5055345;28;20028;-64
2021/08/25 07:40:38;;;;;;;9.48;5.10;;;;;;;;;;5034680;28;20112;-64
2021/08/25 07:43:04;;;;;;;6.90;4.60;;;;;;;;;;5068304;28;20082;-64
2021/08/25 07:45:30;;;;;;;8.57;5.75;;;;;;;;;;5072171;28;20029;-64
2021/08/25 07:47:56;;;;;;;8.82;4.95;;;;;;;;;;5072012;28;20409;-63
2021/08/25 07:50:22;;;;;;;13.48;5.72;;;;;;;;;;5054057;28;20033;-63
2021/08/25 07:52:47;;;;;;;10.38;5.72;;;;;;;;;;5072125;28;20441;-64
2021/08/25 07:55:13;;;;;;;9.82;5.78;;;;;;;;;;5072112;28;20032;-63
2021/08/25 07:57:39;;;;;;;9.43;5.93;;;;;;;;;;5071945;28;20047;-64
2021/08/25 08:00:06;;;;;;;16.65;6.13;;;;;;;;;;5071947;28;20039;-64
2021/08/25 08:02:34;;;;;;;10.82;5.30;;;;;;;;;;5071745;28;20476;-64
2021/08/25 08:05:01;;;;;;;8.68;5.32;;;;;;;;;;5071994;28;20016;-64
2021/08/25 08:07:27;;;;;;;12.60;6.07;;;;;;;;;;5071980;28;20023;-63
2021/08/25 08:09:53;;;;;;;14.23;5.38;;;;;;;;;;5072025;28;20021;-63
2021/08/25 08:12:19;;;;;;;11.13;5.65;;;;;;;;;;5071978;28;20060;-64
2021/08/25 08:14:44;;;;;;;9.77;5.72;;;;;;;;;;5071962;28;20380;-64
2021/08/25 08:17:10;;;;;;;11.10;6.18;;;;;;;;;;5065113;28;20092;-64
2021/08/25 08:19:36;;;;;;;9.73;5.72;;;;;;;;;;5043064;28;20079;-64
2021/08/25 08:22:03;;;;;;;10.77;5.68;;;;;;;;;;5026004;28;20036;-64
2021/08/25 08:24:29;;;;;;;10.18;5.80;;;;;;;;;;5049854;28;20488;-66
2021/08/25 08:26:56;;;;;;;10.60;5.40;;;;;;;;;;5053320;28;20037;-65
2021/08/25 08:29:22;;;;;;;8.68;5.05;;;;;;;;;;5045058;28;20137;-65
2021/08/25 08:31:48;;;;;;;9.13;5.35;;;;;;;;;;5034990;28;20453;-65
2021/08/25 08:34:14;;;;;;;10.35;5.03;;;;;;;;;;5033805;28;20433;-65
2021/08/25 08:36:40;;;;;;;8.85;4.68;;;;;;;;;;5055564;28;20028;-65
2021/08/25 08:39:06;;;;;;;9.65;4.78;;;;;;;;;;5055062;28;20116;-65
2021/08/25 08:41:32;;;;;;;9.18;4.70;;;;;;;;;;5055163;28;20037;-65
2021/08/25 08:43:58;;;;;;;8.05;4.13;;;;;;;;;;5052722;28;20095;-64
2021/08/25 08:46:24;;;;;;;8.25;3.95;;;;;;;;;;5042576;28;20472;-64
2021/08/25 08:48:52;;;;;;;6.75;4.10;;;;;;;;;;5036466;28;20117;-64
2021/08/25 08:51:22;;;;;;;7.90;4.38;;;;;;;;;;5049034;28;20029;-65
2021/08/25 08:53:50;;;;;;;6.50;3.45;;;;;;;;;;5025229;28;20025;-64
2021/08/25 08:56:16;;;;;;;8.68;3.85;;;;;;;;;;5043095;28;20079;-64
2021/08/25 08:58:42;;;;;;;8.18;3.80;;;;;;;;;;5049013;28;20025;-65
2021/08/25 09:01:08;;;;;;;9.00;3.65;;;;;;;;;;5054195;28;20090;-65
2021/08/25 09:03:36;;;;;;;12.38;3.72;;;;;;;;;;5048440;28;20044;-64
2021/08/25 09:06:02;;;;;;;27.98;4.22;;;;;;;;;;5055039;28;20029;-66
2021/08/25 09:08:29;;;;;;;40.78;4.15;;;;;;;;;;5036751;28;20036;-66
2021/08/25 09:11:01;;;;;;;23.98;3.53;;;;;;;;;;5055009;28;20103;-65
2021/08/25 09:13:33;;;;;;;21.90;4.57;;;;;;;;;;5054646;28;20079;-66
2021/08/25 09:15:59;;;;;;;19.27;3.20;;;;;;;;;;5054663;28;20029;-66
2021/08/25 09:18:25;;;;;;;15.85;3.15;;;;;;;;;;5053763;28;20570;-65
2021/08/25 09:20:51;;;;;;;11.95;2.92;;;;;;;;;;5054673;28;20024;-66
2021/08/25 09:23:24;;;;;;;15.02;2.70;;;;;;;;;;5045822;28;20049;-65
2021/08/25 09:25:54;;;;;;;12.90;2.85;;;;;;;;;;5031615;28;20067;-65
2021/08/25 09:28:25;;;;;;;14.40;2.75;;;;;;;;;;5054583;28;20373;-65
2021/08/25 09:30:56;;;;;;;19.30;3.20;;;;;;;;;;5036415;28;20024;-65
2021/08/25 09:33:23;;;;;;;6.80;2.60;;;;;;;;;;5044945;28;20477;-65
2021/08/25 09:35:49;;;;;;;8.70;2.90;;;;;;;;;;5034487;28;20033;-65
2021/08/25 09:38:22;;;;;;;15.20;2.88;;;;;;;;;;5050714;28;20029;-65
2021/08/25 09:40:50;;;;;;;5.95;2.40;;;;;;;;;;5054066;28;20551;-65
2021/08/25 09:43:32;;;;;;;8.57;2.63;;;;;;;;;;5053862;28;20443;-65
2021/08/25 09:46:12;;;;;;;11.30;3.03;;;;;;;;;;5035111;28;20017;-65
2021/08/25 09:48:42;;;;;;;9.10;2.63;;;;;;;;;;5051900;28;20368;-65
2021/08/25 09:51:09;;;;;;;5.68;2.40;;;;;;;;;;5060777;28;20021;-65
2021/08/25 09:53:35;;;;;;;15.07;3.45;;;;;;;;;;5058218;28;20477;-65
2021/08/25 09:56:01;;;;;;;9.48;3.20;;;;;;;;;;5053620;28;20025;-65
2021/08/25 09:58:27;;;;;;;15.45;2.78;;;;;;;;;;5053115;28;20157;-65
2021/08/25 10:00:54;;;;;;;9.32;3.00;;;;;;;;;;5035190;28;20388;-66
2021/08/25 10:03:21;;;;;;;11.70;2.85;;;;;;;;;;5050220;28;20041;-65
2021/08/25 10:05:47;;;;;;;4.57;2.78;;;;;;;;;;5053177;28;20024;-66
2021/08/25 10:08:17;;;;;;;6.57;2.88;;;;;;;;;;5052839;28;20100;-66
2021/08/25 10:10:43;;;;;;;8.90;3.15;;;;;;;;;;5050879;28;20025;-66
2021/08/25 10:13:10;;;;;;;7.28;3.05;;;;;;;;;;5035700;28;20087;-65
2021/08/25 10:15:45;;;;;;;5.38;3.03;;;;;;;;;;5058149;28;20025;-65
2021/08/25 10:18:30;;;;;;;7.45;2.88;;;;;;;;;;5067409;28;20047;-65
2021/08/25 10:21:00;;;;;;;7.85;2.67;;;;;;;;;;5073242;28;20020;-65
2021/08/25 10:23:45;;;;;;;6.53;2.83;;;;;;;;;;5073775;28;20086;-65
2021/08/25 10:26:11;;;;;;;6.55;2.50;;;;;;;;;;5055492;28;20032;-65
2021/08/25 10:28:56;;;;;;;5.15;2.53;;;;;;;;;;5073453;28;20526;-65
2021/08/25 10:31:21;;;;;;;4.63;2.53;;;;;;;;;;5073413;28;20491;-65
2021/08/25 10:34:06;;;;;;;10.35;2.45;;;;;;;;;;5073137;28;20029;-65
2021/08/25 10:36:34;;;;;;;8.15;2.60;;;;;;;;;;5073092;28;20032;-65
2021/08/25 10:39:00;;;;;;;5.43;2.40;;;;;;;;;;5073108;28;20024;-65
2021/08/25 10:41:26;;;;;;;3.53;2.25;;;;;;;;;;5073274;28;20035;-65
2021/08/25 10:43:55;;;;;;;3.28;2.30;;;;;;;;;;5073269;28;20116;-65
2021/08/25 10:46:21;;;;;;;6.78;2.33;;;;;;;;;;5073150;28;20413;-65
2021/08/25 10:48:49;;;;;;;6.20;2.53;;;;;;;;;;5072311;28;20071;-65
2021/08/25 10:51:22;;;;;;;6.72;2.50;;;;;;;;;;5072775;28;20123;-65
2021/08/25 10:53:48;;;;;;;6.53;2.45;;;;;;;;;;5055024;28;20419;-66
2021/08/25 10:56:27;;;;;;;5.30;2.67;;;;;;;;;;5072863;28;20040;-66
2021/08/25 10:59:03;;;;;;;4.15;2.10;;;;;;;;;;5054675;28;20025;-65
2021/08/25 11:01:29;;;;;;;7.63;1.90;;;;;;;;;;5052964;28;20032;-65
2021/08/25 11:03:56;;;;;;;4.03;2.42;;;;;;;;;;5052947;28;20044;-65
2021/08/25 11:06:34;;;;;;;5.43;2.10;;;;;;;;;;5052722;28;20021;-66
2021/08/25 11:09:13;;;;;;;4.82;2.35;;;;;;;;;;5060218;28;20036;-65
2021/08/25 11:11:39;;;;;;;5.43;2.33;;;;;;;;;;5054206;28;20029;-65
2021/08/25 11:14:06;;;;;;;3.90;2.40;;;;;;;;;;5067065;28;20099;-65
2021/08/25 11:16:31;;;;;;;5.55;2.30;;;;;;;;;;5072004;28;20035;-65
2021/08/25 11:18:57;;;;;;;4.82;2.20;;;;;;;;;;5052292;28;20025;-66
2021/08/25 11:21:23;;;;;;;5.30;2.15;;;;;;;;;;5052218;28;20970;-66
2021/08/25 11:23:53;;;;;;;3.15;1.85;;;;;;;;;;5034411;28;20029;-65
2021/08/25 11:26:19;;;;;;;7.78;2.17;;;;;;;;;;5062613;28;20025;-65
2021/08/25 11:28:45;;;;;;;6.68;1.75;;;;;;;;;;5072402;28;20025;-65
2021/08/25 11:31:11;;;;;;;5.28;2.10;;;;;;;;;;5066255;28;20360;-65
2021/08/25 11:33:46;;;;;;;5.93;2.15;;;;;;;;;;5032158;28;20033;-66
2021/08/25 11:36:12;;;;;;;7.53;1.98;;;;;;;;;;5032423;28;20030;-65
2021/08/25 11:38:40;;;;;;;5.53;2.03;;;;;;;;;;5072262;28;20020;-65
2021/08/25 11:41:06;;;;;;;2.88;1.80;;;;;;;;;;5072066;28;20025;-65
2021/08/25 11:43:34;;;;;;;9.18;2.08;;;;;;;;;;5060555;28;20036;-65
2021/08/25 11:46:00;;;;;;;3.00;1.67;;;;;;;;;;5052095;28;20025;-65
2021/08/25 11:48:30;;;;;;;6.38;1.90;;;;;;;;;;5051980;28;20025;-65
2021/08/25 11:50:57;;;;;;;10.40;1.98;;;;;;;;;;5051747;28;20463;-65
2021/08/25 11:53:25;;;;;;;4.57;1.77;;;;;;;;;;5052137;28;20104;-66
2021/08/25 11:55:51;;;;;;;8.40;2.15;;;;;;;;;;5052307;28;20021;-65
2021/08/25 11:58:25;;;;;;;5.20;2.20;;;;;;;;;;5051978;28;20526;-65
2021/08/25 12:00:52;;;;;;;3.90;2.10;;;;;;;;;;5053514;28;20013;-65
2021/08/25 12:03:18;;;;;;;2.13;1.40;;;;;;;;;;5038012;28;20041;-65
2021/08/25 12:05:52;;;;;;;2.70;1.38;;;;;;;;;;5055921;28;20486;-65
2021/08/25 12:08:18;;;;;;;2.38;1.50;;;;;;;;;;5037958;28;20036;-66
2021/08/25 12:10:46;;;;;;;3.47;1.67;;;;;;;;;;5055956;28;20052;-65
2021/08/25 12:13:13;;;;;;;2.88;1.45;;;;;;;;;;5055632;28;20043;-65
2021/08/25 12:15:49;;;;;;;4.10;1.92;;;;;;;;;;5037645;28;20028;-65
2021/08/25 12:18:16;;;;;;;3.60;1.63;;;;;;;;;;5071536;28;20046;-65
2021/08/25 12:20:43;;;;;;;3.40;1.55;;;;;;;;;;5075687;28;20047;-65
2021/08/25 12:23:11;;;;;;;3.10;1.60;;;;;;;;;;5075252;28;20048;-65
2021/08/25 12:25:47;;;;;;;2.47;1.40;;;;;;;;;;5075395;28;20082;-65
2021/08/25 12:28:15;;;;;;;2.63;1.45;;;;;;;;;;5075543;28;20046;-65
2021/08/25 12:30:42;;;;;;;1.75;1.05;;;;;;;;;;5075156;28;20025;-65
2021/08/25 12:33:10;;;;;;;2.60;1.40;;;;;;;;;;5075354;28;20048;-65
2021/08/25 12:35:36;;;;;;;4.20;1.33;;;;;;;;;;5075392;28;20020;-65
2021/08/25 12:38:03;;;;;;;3.20;1.20;;;;;;;;;;5059874;28;20021;-64
2021/08/25 12:40:30;;;;;;;1.83;1.05;;;;;;;;;;5055331;28;20477;-65
2021/08/25 12:42:57;;;;;;;1.70;1.30;;;;;;;;;;5054849;28;20361;-65
2021/08/25 12:45:23;;;;;;;2.15;1.25;;;;;;;;;;5055182;28;20100;-65
2021/08/25 12:47:50;;;;;;;5.95;1.30;;;;;;;;;;5055197;28;20025;-65
2021/08/25 12:50:16;;;;;;;2.28;1.00;;;;;;;;;;5037656;28;20022;-66
2021/08/25 12:52:42;;;;;;;2.40;1.20;;;;;;;;;;5017626;28;20026;-66
2021/08/25 12:55:09;;;;;;;1.73;1.13;;;;;;;;;;5034816;28;20096;-65
2021/08/25 12:57:36;;;;;;;1.20;1.00;;;;;;;;;;5040660;28;20474;-66
2021/08/25 13:00:02;;;;;;;1.58;1.00;;;;;;;;;;5045647;28;20028;-67
2021/08/25 13:02:28;;;;;;;1.38;0.90;;;;;;;;;;5036213;28;20068;-65
2021/08/25 13:04:54;;;;;;;1.27;0.90;;;;;;;;;;5034873;28;20053;-65
2021/08/25 13:07:20;;;;;;;2.65;0.77;;;;;;;;;;5017198;28;20029;-65
2021/08/25 13:09:46;;;;;;;1.23;0.90;;;;;;;;;;5034864;28;20075;-65
2021/08/25 13:12:12;;;;;;;1.58;0.65;;;;;;;;;;5033675;28;20120;-65
2021/08/25 13:14:38;;;;;;;1.60;0.90;;;;;;;;;;5017519;28;20018;-65
2021/08/25 13:17:04;;;;;;;3.28;1.25;;;;;;;;;;5047463;28;20388;-65
2021/08/25 13:19:30;;;;;;;1.55;0.90;;;;;;;;;;5074613;28;20449;-65
2021/08/25 13:21:56;;;;;;;1.50;0.77;;;;;;;;;;5074453;28;20046;-65
2021/08/25 13:24:22;;;;;;;2.78;0.90;;;;;;;;;;5039396;28;20025;-65
2021/08/25 13:26:48;;;;;;;1.67;0.90;;;;;;;;;;5036338;28;20395;-65
2021/08/25 13:29:13;;;;;;;1.45;0.80;;;;;;;;;;5054189;28;20061;-65
2021/08/25 13:31:39;;;;;;;1.60;0.80;;;;;;;;;;5054504;28;20086;-65
2021/08/25 13:34:05;;;;;;;4.53;0.80;;;;;;;;;;5054401;28;20031;-65
2021/08/25 13:36:32;;;;;;;2.45;0.70;;;;;;;;;;5057130;28;20036;-65
2021/08/25 13:38:58;;;;;;;0.90;0.68;;;;;;;;;;5074275;28;20077;-65
2021/08/25 13:41:23;;;;;;;0.85;0.73;;;;;;;;;;5073960;28;20472;-65
2021/08/25 13:43:49;;;;;;;0.90;0.70;;;;;;;;;;5066527;28;20068;-65
2021/08/25 13:46:15;;;;;;;0.82;0.68;;;;;;;;;;5054157;28;20036;-65
2021/08/25 13:48:41;;;;;;;1.50;0.70;;;;;;;;;;5031751;28;20449;-65
2021/08/25 13:51:08;;;;;;;1.88;0.70;;;;;;;;;;5034089;28;20056;-65
2021/08/25 13:53:34;;;;;;;1.63;0.70;;;;;;;;;;5034131;28;20022;-65
2021/08/25 13:56:01;;;;;;;3.15;0.80;;;;;;;;;;5033866;28;20105;-65
2021/08/25 13:58:26;;;;;;;2.25;0.85;;;;;;;;;;5034067;28;20030;-65
2021/08/25 14:00:52;;;;;;;0.80;0.60;;;;;;;;;;5016165;28;20067;-65
2021/08/25 14:03:18;;;;;;;5.32;0.70;;;;;;;;;;5016034;28;20040;-64
2021/08/25 14:05:44;;;;;;;4.25;0.70;;;;;;;;;;5033831;28;20535;-64
2021/08/25 14:08:10;;;;;;;0.50;0.50;;;;;;;;;;5033725;28;20065;-64
2021/08/25 14:10:36;;;;;;;0.57;0.43;;;;;;;;;;5033638;28;20037;-64
2021/08/25 14:13:02;;;;;;;0.43;0.40;;;;;;;;;;5033206;28;20021;-64
2021/08/25 14:15:32;;;;;;;1.45;0.50;;;;;;;;;;5039292;28;20039;-64
2021/08/25 14:17:58;;;;;;;0.50;0.32;;;;;;;;;;5065169;28;20041;-64
2021/08/25 14:20:24;;;;;;;1.88;0.50;;;;;;;;;;5073453;28;20108;-64
2021/08/25 14:22:50;;;;;;;0.98;0.40;;;;;;;;;;5055258;28;20140;-64
2021/08/25 14:25:16;;;;;;;1.25;0.60;;;;;;;;;;5073615;28;20028;-64
2021/08/25 14:27:42;;;;;;;1.48;0.47;;;;;;;;;;5072952;28;20031;-65
2021/08/25 14:30:08;;;;;;;1.33;0.50;;;;;;;;;;5055335;28;20464;-65
2021/08/25 14:32:34;;;;;;;9.00;0.90;;;;;;;;;;5070598;28;20024;-64
2021/08/25 14:35:00;;;;;;;11.00;0.80;;;;;;;;;;5035095;28;20166;-65
2021/08/25 14:37:26;;;;;;;10.13;0.70;;;;;;;;;;5063331;28;20028;-64
2021/08/25 14:39:52;;;;;;;3.22;0.88;;;;;;;;;;5072762;28;20102;-64